Yeovilton

ADDS - METARS form results

Output produced by METARs form (1617 UTC 22 February 2019)
found at http://www.aviationweather.gov/metar/data/
 
METAR text: EGDY 221550Z AUTO 13009KT 9999 NCD 10/06 Q1033
Conditions at: EGDY (YEOVILTON (NAVY), GB) observed 1550 UTC 22 February 2019
Temperature: 10.0°C (50°F)
Dewpoint: 6.0°C (43°F) [RH = 76%]
Pressure (altimeter): 30.50 inches Hg (1033.0 mb)
Winds: from the SE (130 degrees) at 10 MPH (9 knots; 4.6 m/s)
Visibility: 6 or more miles (10+ km)
Ceiling: at least 12,000 feet AGL
Clouds: sky clear below 12,000 feet AGL
Weather: no significant weather observed at this time

Forecast for: EGDY (YEOVILTON (NAVY), GB)
Text: TAF EGDY 220737Z 2209/2218 13005KT 2500 BR BKN005
Forecast period: 0900 to 1000 UTC 22 February 2019
Forecast type: FROM: standard forecast or significant change
Winds: from the SE (130 degrees) at 6 MPH (5 knots; 2.6 m/s)
Visibility: 1.55 miles (2.49 km)
Ceiling: 500 feet AGL
Clouds: broken clouds at 500 feet AGL
Weather: BR  (mist)
Text: BECMG 2210/2212 13010KT 6000 HZ FEW008
Forecast period: 1000 to 1800 UTC 22 February 2019
Forecast type: BECOMING: Conditions expected to become as follows by 1200 UTC 22 February 2019
Winds: from the SE (130 degrees) at 12 MPH (10 knots; 5.1 m/s)
Visibility: 4 miles (6 km)
Ceiling: at least 12,000 feet AGL
Clouds: few clouds at 800 feet AGL
Weather: HZ  (haze)


Bournemouth

ADDS - METARS form results

Output produced by METARs form (1617 UTC 22 February 2019)
found at http://www.aviationweather.gov/metar/data/
 
METAR text: EGHH 221550Z 13009KT 5000 BR BKN006 08/07 Q1034
Conditions at: EGHH (BOURNEMOUTH AIRP, GB) observed 1550 UTC 22 February 2019
Temperature: 8.0°C (46°F)
Dewpoint: 7.0°C (45°F) [RH = 93%]
Pressure (altimeter): 30.53 inches Hg (1034.0 mb)
Winds: from the SE (130 degrees) at 10 MPH (9 knots; 4.6 m/s)
Visibility: 3 miles ( 5 km)
Ceiling: 600 feet AGL
Clouds: broken clouds at 600 feet AGL
Weather: BR  (mist)

METAR text: EGHH 221520Z 14008KT 4000 BR BKN006 09/07 Q1034
Conditions at: EGHH (BOURNEMOUTH AIRP, GB) observed 1520 UTC 22 February 2019
Temperature: 9.0°C (48°F)
Dewpoint: 7.0°C (45°F) [RH = 87%]
Pressure (altimeter): 30.53 inches Hg (1034.0 mb)
Winds: from the SE (140 degrees) at 9 MPH (8 knots; 4.1 m/s)
Visibility: 2.49 miles (4.01 km)
Ceiling: 600 feet AGL
Clouds: broken clouds at 600 feet AGL
Weather: BR  (mist)

Forecast for: EGHH (BOURNEMOUTH AIRP, GB)
Text: TAF EGHH 221407Z 2215/2224 12008KT 6000 BKN003
Forecast period: 1500 UTC 22 February 2019 to 0000 UTC 23 February 2019
Forecast type: FROM: standard forecast or significant change
Winds: from the ESE (120 degrees) at 9 MPH (8 knots; 4.1 m/s)
Visibility: 4 miles (6 km)
Ceiling: 300 feet AGL
Clouds: broken clouds at 300 feet AGL
Weather: no significant weather forecast for this period
Text: BECMG 2215/2218 4000 BR BKN008
Forecast period: 1500 UTC 22 February 2019 to 0000 UTC 23 February 2019
Forecast type: BECOMING: Conditions expected to become as follows by 1800 UTC 22 February 2019
Winds: from the ESE (120 degrees) at 9 MPH (8 knots; 4.1 m/s)
Visibility: 2.49 miles (4.01 km)
Ceiling: 800 feet AGL
Clouds: broken clouds at 800 feet AGL
Weather: BR  (mist)
Text: TEMPO 2218/2224 0300 FG BKN001
Forecast period: 1800 UTC 22 February 2019 to 0000 UTC 23 February 2019
Forecast type: TEMPORARY: The following changes expected for less than half the time period
Visibility: 0.19 miles (0.31 km)
Ceiling: 100 feet AGL
Clouds: broken clouds at 100 feet AGL
Weather: FG  (fog)


Boscombe

ADDS - METARS form results

Output produced by METARs form (1617 UTC 22 February 2019)
found at http://www.aviationweather.gov/metar/data/
 
METAR text: EGDM 221550Z 15007KT 8000 HZ SCT007 SCT250 09/07 Q1034 GRN TEMPO FEW007 BLU
Conditions at: EGDM (BOSCOMBE DOWN , GB) observed 1550 UTC 22 February 2019
Temperature: 9.0°C (48°F)
Dewpoint: 7.0°C (45°F) [RH = 87%]
Pressure (altimeter): 30.53 inches Hg (1034.0 mb)
Winds: from the SSE (150 degrees) at 8 MPH (7 knots; 3.6 m/s)
Visibility: 5 miles ( 8 km)
Ceiling: at least 12,000 feet AGL
Clouds: scattered clouds at 700 feet AGL
scattered clouds at 25000 feet AGL
Weather: HZ  (haze)

METAR text: EGDM 221534Z 14009KT 8000 HZ FEW006 SCT250 09/07 Q1034 BLU TEMPO 7000 SCT006 YLO1
Conditions at: EGDM (BOSCOMBE DOWN , GB) observed 1534 UTC 22 February 2019
Temperature: 9.0°C (48°F)
Dewpoint: 7.0°C (45°F) [RH = 87%]
Pressure (altimeter): 30.53 inches Hg (1034.0 mb)
Winds: from the SE (140 degrees) at 10 MPH (9 knots; 4.6 m/s)
Visibility: 5 miles ( 8 km)
Ceiling: at least 12,000 feet AGL
Clouds: few clouds at 600 feet AGL
scattered clouds at 25000 feet AGL
Weather: HZ  (haze)

Forecast for: EGDM (BOSCOMBE DOWN , GB)
Text: TAF EGDM 221359Z 2215/2218 14006KT 3000 BKN004
Forecast period: 1500 to 1800 UTC 22 February 2019
Forecast type: FROM: standard forecast or significant change
Winds: from the SE (140 degrees) at 7 MPH (6 knots; 3.1 m/s)
Visibility: 1.86 miles (2.99 km)
Ceiling: 400 feet AGL
Clouds: broken clouds at 400 feet AGL
Weather: no significant weather forecast for this period
Text: TEMPO 2215/2218 9999 NSW FEW007
Forecast period: 1500 to 1800 UTC 22 February 2019
Forecast type: TEMPORARY: The following changes expected for less than half the time period
Visibility: 6 or more miles 10+ km)
Ceiling: at least 12,000 feet AGL
Clouds: few clouds at 700 feet AGL
Weather: NSW  (no significant weather)


Bristol

ADDS - METARS form results

Output produced by METARs form (1617 UTC 22 February 2019)
found at http://www.aviationweather.gov/metar/data/
 
METAR text: EGGD 221550Z AUTO 13007KT 9999 NCD 11/06 Q1032
Conditions at: EGGD (BRISTOL/LULSGATE, GB) observed 1550 UTC 22 February 2019
Temperature: 11.0°C (52°F)
Dewpoint: 6.0°C (43°F) [RH = 71%]
Pressure (altimeter): 30.47 inches Hg (1032.0 mb)
Winds: from the SE (130 degrees) at 8 MPH (7 knots; 3.6 m/s)
Visibility: 6 or more miles (10+ km)
Ceiling: at least 12,000 feet AGL
Clouds: sky clear below 12,000 feet AGL
Weather: no significant weather observed at this time

METAR text: EGGD 221520Z 14008KT 8000 NCD 12/06 Q1033
Conditions at: EGGD (BRISTOL/LULSGATE, GB) observed 1520 UTC 22 February 2019
Temperature: 12.0°C (54°F)
Dewpoint: 6.0°C (43°F) [RH = 67%]
Pressure (altimeter): 30.50 inches Hg (1033.0 mb)
Winds: from the SE (140 degrees) at 9 MPH (8 knots; 4.1 m/s)
Visibility: 5 miles ( 8 km)
Ceiling: at least 12,000 feet AGL
Clouds: sky clear below 12,000 feet AGL
Weather: no significant weather observed at this time

Forecast for: EGGD (BRISTOL/LULSGATE, GB)
Text: TAF EGGD 221105Z 2212/2312 14007KT 6000 SCT006
Forecast period: 1200 UTC 22 February 2019 to 1200 UTC 23 February 2019
Forecast type: FROM: standard forecast or significant change
Winds: from the SE (140 degrees) at 8 MPH (7 knots; 3.6 m/s)
Visibility: 4 miles (6 km)
Ceiling: at least 12,000 feet AGL
Clouds: scattered clouds at 600 feet AGL
Weather: no significant weather forecast for this period
Text: BECMG 2212/2214 9999
Forecast period: 1200 to 1700 UTC 22 February 2019
Forecast type: BECOMING: Conditions expected to become as follows by 1400 UTC 22 February 2019
Winds: from the SE (140 degrees) at 8 MPH (7 knots; 3.6 m/s)
Visibility: 6 or more miles 10+ km)
Ceiling: at least 12,000 feet AGL
Clouds: scattered clouds at 600 feet AGL
Weather: no significant weather forecast for this period
Text: PROB30
Forecast period: 1400 to 1700 UTC 22 February 2019
Forecast type: TEMPORARY: The following changes expected for less than half the time period
Visibility: 6 miles (9 km)
Ceiling: 600 feet AGL
Clouds: broken clouds at 600 feet AGL
Weather: no significant weather forecast for this period
Text: TEMPO 2214/2217 9000 BKN006
Forecast period: 1700 UTC 22 February 2019 to 0700 UTC 23 February 2019
Forecast type: BECOMING: Conditions expected to become as follows by 2000 UTC 22 February 2019
Winds: from the SE (140 degrees) at 8 MPH (7 knots; 3.6 m/s)
Visibility: 2.49 miles (4.01 km)
Ceiling: 300 feet AGL
Clouds: broken clouds at 300 feet AGL
Weather: BR  (mist)
Text: BECMG 2217/2220 4000 BR BKN003
Forecast period: 2000 UTC 22 February 2019 to 0700 UTC 23 February 2019
Forecast type: TEMPORARY: The following changes expected for less than half the time period
Visibility: 0.19 miles (0.31 km)
Ceiling: 100 feet AGL
Clouds: broken clouds at 100 feet AGL
Weather: FG  (fog)
Text: PROB30
Forecast period: 0700 to 1200 UTC 23 February 2019
Forecast type: BECOMING: Conditions expected to become as follows by 1000 UTC 23 February 2019
Winds: from the SE (140 degrees) at 8 MPH (7 knots; 3.6 m/s)
Visibility: 6 or more miles 10+ km)
Ceiling: unknown
Clouds: missing
Weather: NSW  (no significant weather)






Experience Flights